Time;durP1;ratioP1;P1;durP2;ratioP2;P2;SDS_P1;SDS_P2;PMS_P1;PMS_P2;Temp;Humidity;BMP_temperature;BMP_pressure;BME280_temperature;BME280_humidity;BME280_pressure;Samples;Min_cycle;Max_cycle;Signal;HPM_P1;HPM_P2
2023/01/15 00:00:35;;;;;;;14.88;2.55;;;;;;;8.32;100.00;99854.50;4990807;28;20042;-62
2023/01/15 00:03:01;;;;;;;11.00;1.65;;;;;;;8.40;100.00;99854.16;4990505;28;20035;-62
2023/01/15 00:05:26;;;;;;;12.93;2.05;;;;;;;8.34;100.00;99857.06;4973802;28;20023;-60
2023/01/15 00:07:52;;;;;;;10.63;2.25;;;;;;;8.36;100.00;99868.34;4991571;28;20026;-61
2023/01/15 00:10:18;;;;;;;15.20;1.95;;;;;;;8.37;100.00;99863.94;4972702;28;20093;-63
2023/01/15 00:12:43;;;;;;;13.05;2.63;;;;;;;8.38;100.00;99849.91;4991402;28;20504;-63
2023/01/15 00:15:09;;;;;;;15.55;2.65;;;;;;;8.36;100.00;99847.34;4989931;28;20105;-64
2023/01/15 00:17:34;;;;;;;17.63;3.08;;;;;;;8.44;100.00;99849.66;4991225;28;20027;-68
2023/01/15 00:19:59;;;;;;;15.40;2.33;;;;;;;8.38;100.00;99837.66;4991601;28;20018;-63
2023/01/15 00:22:25;;;;;;;14.15;2.80;;;;;;;8.40;100.00;99832.34;4990987;28;20027;-60
2023/01/15 00:27:40;;;;;;;13.65;2.30;;;;;;;8.37;100.00;99840.31;4991199;28;20053;-64
2023/01/15 00:30:09;;;;;;;23.40;2.67;;;;;;;8.28;100.00;99850.25;4972696;28;20022;-64
2023/01/15 00:32:34;;;;;;;20.55;3.03;;;;;;;8.33;100.00;99834.34;4991064;28;20029;-61
2023/01/15 00:35:00;;;;;;;13.35;2.50;;;;;;;8.21;100.00;99835.69;5001802;28;20029;-63
2023/01/15 00:37:25;;;;;;;15.75;2.72;;;;;;;8.33;100.00;99832.56;5009770;28;20108;-60
2023/01/15 00:39:51;;;;;;;11.55;1.92;;;;;;;8.30;100.00;99824.81;5009163;28;20149;-62
2023/01/15 00:42:16;;;;;;;18.25;3.63;;;;;;;8.27;100.00;99831.97;5010801;28;20498;-63
2023/01/15 00:44:42;;;;;;;10.70;3.15;;;;;;;8.08;99.45;99859.81;5009387;28;20022;-64
2023/01/15 00:47:13;;;;;;;8.32;2.10;;;;;;;8.18;99.11;99835.81;5009253;28;20417;-61
2023/01/15 00:49:38;;;;;;;12.95;2.15;;;;;;;8.20;98.48;99836.63;5009088;28;20038;-61
2023/01/15 00:52:04;;;;;;;19.00;3.03;;;;;;;8.06;97.18;99822.28;5009519;28;20026;-62
2023/01/15 00:54:29;;;;;;;11.02;2.20;;;;;;;8.18;96.28;99834.06;5008994;28;20029;-62
2023/01/15 00:56:55;;;;;;;9.55;2.25;;;;;;;8.18;96.97;99838.44;5009370;28;20033;-65
2023/01/15 00:59:20;;;;;;;14.48;2.85;;;;;;;8.11;96.94;99824.72;5009931;28;20084;-61
2023/01/15 01:01:46;;;;;;;22.55;3.47;;;;;;;8.24;97.26;99842.59;4993687;28;20035;-62
2023/01/15 01:04:11;;;;;;;16.30;2.85;;;;;;;8.08;97.56;99833.56;5007794;28;20026;-64
2023/01/15 01:06:36;;;;;;;22.08;2.63;;;;;;;8.13;97.80;99841.25;5009284;28;20025;-63
2023/01/15 01:09:02;;;;;;;19.48;2.70;;;;;;;8.20;98.00;99834.00;5008132;28;20036;-63
2023/01/15 01:11:31;;;;;;;10.95;2.10;;;;;;;8.08;98.57;99837.97;4990084;28;20069;-64
2023/01/15 01:13:57;;;;;;;10.52;2.15;;;;;;;8.16;99.04;99840.28;4989812;28;20014;-65
2023/01/15 01:16:36;;;;;;;11.65;2.45;;;;;;;8.14;99.45;99844.72;4988915;28;20089;-63
2023/01/15 01:19:09;;;;;;;13.90;2.38;;;;;;;8.03;99.95;99842.53;5009165;28;20026;-63
2023/01/15 01:21:36;;;;;;;12.15;1.80;;;;;;;7.99;99.72;99847.06;5008168;28;20056;-64
2023/01/15 01:24:02;;;;;;;15.18;3.20;;;;;;;8.04;100.00;99857.38;5008673;28;20018;-60
2023/01/15 01:26:28;;;;;;;18.35;2.10;;;;;;;8.06;100.00;99845.88;5009112;28;20464;-62
2023/01/15 01:28:56;;;;;;;13.23;2.08;;;;;;;8.12;100.00;99849.19;5001104;28;20062;-58
2023/01/15 01:31:22;;;;;;;17.63;2.33;;;;;;;8.02;100.00;99851.31;5008420;28;20030;-62
2023/01/15 01:33:49;;;;;;;16.52;2.83;;;;;;;7.90;100.00;99855.25;5009641;28;20026;-64
2023/01/15 01:36:14;;;;;;;14.30;2.20;;;;;;;7.95;100.00;99854.16;5009281;28;20041;-63
2023/01/15 01:38:39;;;;;;;13.45;2.25;;;;;;;8.00;100.00;99840.03;5009072;28;20030;-64
2023/01/15 01:41:05;;;;;;;19.75;3.03;;;;;;;8.03;100.00;99850.38;4993313;28;20034;-64
2023/01/15 01:43:30;;;;;;;17.13;2.35;;;;;;;8.06;100.00;99851.13;5007297;28;20021;-64
2023/01/15 01:45:56;;;;;;;12.35;2.13;;;;;;;8.01;100.00;99866.19;4989565;28;20053;-65
2023/01/15 01:48:28;;;;;;;8.30;2.47;;;;;;;8.00;100.00;99866.28;5009145;28;20045;-64
2023/01/15 01:50:55;;;;;;;15.13;1.98;;;;;;;7.98;99.02;99845.34;5008668;28;20061;-65
2023/01/15 01:53:25;;;;;;;6.82;1.58;;;;;;;7.94;98.57;99856.84;4989435;28;20133;-63
2023/01/15 01:55:51;;;;;;;12.40;2.63;;;;;;;7.99;97.82;99854.06;4971017;28;20470;-61
2023/01/15 01:58:18;;;;;;;8.80;1.88;;;;;;;7.97;97.70;99867.22;4970863;28;20474;-64
2023/01/15 02:00:45;;;;;;;7.38;2.15;;;;;;;8.03;98.22;99861.75;4987125;28;20031;-63
2023/01/15 02:03:11;;;;;;;15.68;2.38;;;;;;;8.02;98.46;99862.66;4988812;28;20030;-64
2023/01/15 02:05:39;;;;;;;19.20;2.28;;;;;;;7.99;99.16;99864.53;4988358;28;20080;-63
2023/01/15 02:08:05;;;;;;;13.45;2.45;;;;;;;7.93;99.51;99855.16;4969940;28;20023;-66
2023/01/15 02:10:30;;;;;;;14.25;2.00;;;;;;;7.91;99.49;99849.97;4983563;28;20507;-65
2023/01/15 02:13:24;;;;;;;9.38;2.22;;;;;;;7.90;98.89;99844.78;5007173;28;20064;-62
2023/01/15 02:15:59;;;;;;;26.27;3.13;;;;;;;7.89;98.06;99843.91;5077901;23;20053;-65
2023/01/15 02:18:33;;;;;;;13.25;1.90;;;;;;;7.84;97.90;99841.50;5029496;28;20025;-63
2023/01/15 02:21:04;;;;;;;13.57;2.35;;;;;;;7.86;97.74;99854.56;5029420;28;20025;-62
2023/01/15 02:23:43;;;;;;;11.75;1.65;;;;;;;7.77;98.01;99834.75;5030177;28;20057;-60
2023/01/15 02:26:38;;;;;;;15.18;2.10;;;;;;;7.86;97.97;99843.19;5046597;28;20048;-64
2023/01/15 02:29:08;;;;;;;9.07;2.08;;;;;;;7.94;98.14;99835.88;5047819;28;20048;-63
2023/01/15 02:31:36;;;;;;;14.00;2.05;;;;;;;7.96;98.31;99834.91;5046771;28;20021;-63
2023/01/15 02:34:15;;;;;;;11.97;1.73;;;;;;;7.88;99.00;99836.09;5050649;28;20599;-65
2023/01/15 02:36:43;;;;;;;9.82;1.77;;;;;;;7.79;99.26;99827.69;5034010;28;20309;-65
2023/01/15 02:39:12;;;;;;;12.95;2.10;;;;;;;7.78;99.98;99839.09;5016126;28;20146;-63
2023/01/15 02:41:43;;;;;;;15.65;2.33;;;;;;;7.75;100.00;99833.09;5051599;28;20383;-64
2023/01/15 02:44:09;;;;;;;17.13;2.25;;;;;;;7.73;100.00;99848.06;5033282;28;20028;-63
2023/01/15 02:46:35;;;;;;;9.73;2.03;;;;;;;7.75;100.00;99840.97;5035101;28;20041;-65
2023/01/15 02:49:03;;;;;;;14.38;2.20;;;;;;;7.69;100.00;99847.31;5013417;28;20032;-65
2023/01/15 02:51:33;;;;;;;13.70;3.05;;;;;;;7.66;100.00;99847.44;5012518;28;20041;-65
2023/01/15 02:54:00;;;;;;;16.75;4.07;;;;;;;7.68;100.00;99843.00;5030562;28;20053;-64
2023/01/15 02:56:29;;;;;;;30.77;4.22;;;;;;;7.59;100.00;99837.16;5013774;28;20080;-64
2023/01/15 02:58:57;;;;;;;17.05;3.35;;;;;;;7.72;100.00;99839.31;5010713;28;20092;-65
2023/01/15 03:01:26;;;;;;;10.60;1.88;;;;;;;7.74;100.00;99839.28;5012567;28;20025;-64
2023/01/15 03:03:59;;;;;;;;;;;;;;;7.77;100.00;99829.50;5030667;28;20467;-64
2023/01/15 03:06:31;;;;;;;6.55;1.73;;;;;;;7.74;99.99;99823.53;5030981;28;20004;-63
2023/01/15 03:08:56;;;;;;;8.82;1.67;;;;;;;7.54;98.29;99833.00;5029811;28;20038;-66
2023/01/15 03:11:22;;;;;;;13.07;1.95;;;;;;;7.64;98.20;99825.63;5012702;28;20052;-66
2023/01/15 03:13:53;;;;;;;15.80;2.35;;;;;;;7.68;97.23;99817.59;5012630;28;20048;-65
2023/01/15 03:16:34;;;;;;;11.70;1.70;;;;;;;7.66;97.37;99824.69;5012124;28;20050;-64
2023/01/15 03:19:17;;;;;;;13.15;1.63;;;;;;;7.59;97.48;99818.81;5029797;28;20021;-65
2023/01/15 03:21:51;;;;;;;16.77;2.17;;;;;;;7.65;97.63;99830.00;5047321;28;20033;-63
2023/01/15 03:24:23;;;;;;;14.50;2.83;;;;;;;7.59;98.16;99825.84;5032217;28;20028;-63
2023/01/15 03:26:48;;;;;;;12.13;1.70;;;;;;;7.53;97.97;99840.00;5050587;28;20028;-63
2023/01/15 03:29:14;;;;;;;15.05;2.33;;;;;;;7.62;98.09;99812.63;5049425;28;20028;-64
2023/01/15 03:31:40;;;;;;;12.02;2.10;;;;;;;7.62;98.84;99812.63;5021632;28;20031;-62
2023/01/15 03:34:06;;;;;;;13.27;2.15;;;;;;;7.70;99.18;99822.78;5012524;28;20100;-64
2023/01/15 03:36:32;;;;;;;9.88;2.40;;;;;;;7.65;100.00;99824.75;5029688;28;20105;-63
2023/01/15 03:38:57;;;;;;;11.10;1.75;;;;;;;7.50;99.40;99823.56;5029666;28;20363;-65
2023/01/15 03:41:36;;;;;;;12.13;2.10;;;;;;;7.57;99.63;99832.91;5012910;28;20027;-65
2023/01/15 03:44:07;;;;;;;16.05;2.38;;;;;;;7.64;99.79;99823.88;5028562;28;20099;-66
2023/01/15 03:46:36;;;;;;;20.23;4.53;;;;;;;7.61;98.05;99833.66;5029458;28;20080;-67
2023/01/15 03:49:14;;;;;;;12.85;2.20;;;;;;;7.65;97.96;99803.78;5029162;28;20439;-61
2023/01/15 03:51:50;;;;;;;9.73;1.92;;;;;;;7.72;97.79;99810.47;5012445;28;20146;-67
2023/01/15 03:54:22;;;;;;;11.27;2.28;;;;;;;7.69;98.44;99806.22;5027199;28;20040;-64
2023/01/15 03:57:03;;;;;;;9.93;2.03;;;;;;;7.70;99.00;99799.19;5032262;28;20025;-63
2023/01/15 03:59:32;;;;;;;14.18;2.25;;;;;;;7.68;100.00;99804.50;5030307;28;20029;-63
2023/01/15 04:01:59;;;;;;;18.17;2.15;;;;;;;7.66;100.00;99815.97;5049215;28;20032;-66
2023/01/15 04:04:25;;;;;;;16.23;1.90;;;;;;;7.72;100.00;99810.47;5038914;28;20035;-63
2023/01/15 04:06:52;;;;;;;9.88;2.08;;;;;;;7.67;100.00;99801.94;5009630;28;20468;-61
2023/01/15 04:09:17;;;;;;;14.68;1.77;;;;;;;7.65;100.00;99817.72;5028358;28;20548;-64
2023/01/15 04:11:43;;;;;;;6.15;1.60;;;;;;;7.63;100.00;99809.06;5010571;28;20030;-65
2023/01/15 04:14:12;;;;;;;6.68;1.80;;;;;;;7.71;100.00;99819.28;5044120;28;20079;-63
2023/01/15 04:16:37;;;;;;;12.63;2.35;;;;;;;7.57;100.00;99797.06;5031913;28;20060;-65
2023/01/15 04:19:02;;;;;;;14.88;2.72;;;;;;;7.67;100.00;99809.78;5048323;28;20029;-61
2023/01/15 04:21:28;;;;;;;11.07;2.03;;;;;;;7.72;99.99;99810.47;5031815;28;20359;-64
2023/01/15 04:23:53;;;;;;;16.00;1.80;;;;;;;7.59;100.00;99831.91;5042074;28;20029;-65
2023/01/15 04:26:18;;;;;;;16.80;2.50;;;;;;;7.63;99.98;99822.19;5029902;28;20547;-64
2023/01/15 04:28:44;;;;;;;13.25;2.22;;;;;;;7.63;99.68;99816.94;5029189;28;20037;-63
2023/01/15 04:31:09;;;;;;;15.07;2.33;;;;;;;7.76;100.00;99805.97;5028025;28;20022;-64
2023/01/15 04:33:35;;;;;;;12.07;2.25;;;;;;;7.71;99.72;99803.53;5010926;28;20523;-65
2023/01/15 04:36:02;;;;;;;15.15;2.20;;;;;;;7.75;99.84;99806.88;5029686;28;20030;-65
2023/01/15 04:38:27;;;;;;;17.58;4.43;;;;;;;7.49;100.00;99820.06;5011329;28;20116;-64
2023/01/15 04:46:24;;;;;;;11.70;2.17;;;;;;;7.68;99.29;99811.53;5044205;28;20046;-64
2023/01/15 04:48:50;;;;;;;6.60;1.83;;;;;;;7.55;100.00;99814.59;5049388;28;20116;-63
2023/01/15 04:51:15;;;;;;;9.55;1.80;;;;;;;7.50;100.00;99832.28;5048046;28;20358;-65
2023/01/15 04:53:41;;;;;;;11.55;1.90;;;;;;;7.56;99.55;99810.22;5048689;28;20435;-66
2023/01/15 04:56:06;;;;;;;13.23;1.73;;;;;;;7.49;98.94;99809.59;5041695;28;20025;-65
2023/01/15 04:58:32;;;;;;;10.05;1.77;;;;;;;7.55;97.76;99818.97;5028810;28;20045;-65
2023/01/15 05:00:59;;;;;;;13.00;1.50;;;;;;;7.56;97.66;99811.06;5027301;28;20112;-65
2023/01/15 05:03:25;;;;;;;11.57;2.15;;;;;;;7.52;96.94;99808.59;5028232;28;20112;-66
2023/01/15 05:05:51;;;;;;;8.68;1.80;;;;;;;7.53;96.38;99805.09;5038036;28;20485;-65
2023/01/15 05:08:16;;;;;;;10.73;1.88;;;;;;;7.47;97.92;99816.66;5034939;28;20066;-65
2023/01/15 05:10:42;;;;;;;12.52;2.10;;;;;;;7.45;95.24;99815.88;5030313;28;20044;-66
2023/01/15 05:13:07;;;;;;;13.10;1.48;;;;;;;7.44;92.31;99799.28;5047389;28;20655;-66
2023/01/15 05:15:32;;;;;;;6.57;1.63;;;;;;;7.42;89.89;99823.84;5047632;28;20106;-65
2023/01/15 05:17:58;;;;;;;11.27;1.98;;;;;;;7.45;87.96;99800.13;5047022;28;20037;-66
2023/01/15 05:20:23;;;;;;;10.88;1.85;;;;;;;7.49;87.67;99799.09;5044366;28;20026;-66
2023/01/15 05:22:48;;;;;;;4.85;1.00;;;;;;;7.58;88.22;99803.13;5038630;28;20025;-60
2023/01/15 05:25:14;;;;;;;6.70;1.35;;;;;;;7.39;89.21;99805.59;5032932;28;20147;-62
2023/01/15 05:27:39;;;;;;;6.43;1.75;;;;;;;7.35;88.47;99819.75;5033956;28;20022;-65
2023/01/15 05:30:06;;;;;;;13.73;1.67;;;;;;;7.27;88.12;99815.63;5024484;28;20021;-65
2023/01/15 05:32:31;;;;;;;11.98;1.55;;;;;;;7.39;87.84;99830.06;5047346;28;20080;-64
2023/01/15 05:34:56;;;;;;;12.98;1.70;;;;;;;7.23;87.36;99819.28;5028557;28;20030;-64
2023/01/15 05:37:21;;;;;;;5.25;1.48;;;;;;;7.25;87.65;99811.38;5047575;28;20032;-65
2023/01/15 05:39:47;;;;;;;9.20;1.52;;;;;;;7.35;88.46;99802.25;5041458;28;20039;-65
2023/01/15 05:42:12;;;;;;;8.90;1.60;;;;;;;7.37;88.65;99817.94;5028327;28;20680;-65
2023/01/15 05:44:38;;;;;;;12.50;1.63;;;;;;;7.29;88.30;99807.72;5029030;28;20021;-64
2023/01/15 05:47:06;;;;;;;7.00;1.42;;;;;;;7.13;90.34;99799.56;5047134;28;20029;-66
2023/01/15 05:49:32;;;;;;;15.30;1.87;;;;;;;7.05;90.33;99808.53;5045786;28;20040;-61
2023/01/15 05:51:59;;;;;;;8.15;1.77;;;;;;;7.01;91.38;99803.50;5046267;28;20075;-63
2023/01/15 05:54:27;;;;;;;11.55;1.90;;;;;;;7.05;91.29;99797.22;5047262;28;20051;-66
2023/01/15 05:56:53;;;;;;;8.90;1.90;;;;;;;6.99;91.77;99800.94;5047495;28;20031;-66
2023/01/15 05:59:21;;;;;;;6.63;1.15;;;;;;;6.67;91.53;99834.31;5028149;28;20025;-66
2023/01/15 06:01:46;;;;;;;8.15;1.70;;;;;;;6.73;91.24;99814.91;5029714;28;20025;-67
2023/01/15 06:04:13;;;;;;;9.73;1.70;;;;;;;6.76;91.60;99813.06;5024414;28;20521;-62
2023/01/15 06:06:38;;;;;;;3.60;1.00;;;;;;;6.80;92.37;99801.56;5046112;28;20111;-65
2023/01/15 06:09:04;;;;;;;9.65;1.63;;;;;;;6.86;93.42;99815.38;5046893;28;20120;-66
2023/01/15 06:11:29;;;;;;;9.88;1.58;;;;;;;6.77;93.31;99822.59;5022116;28;20114;-62
2023/01/15 06:13:54;;;;;;;7.60;1.73;;;;;;;6.70;93.09;99818.50;5044604;28;20044;-64
2023/01/15 06:16:20;;;;;;;13.90;1.73;;;;;;;6.63;91.68;99830.09;5040115;28;20150;-65
2023/01/15 06:18:45;;;;;;;11.15;2.22;;;;;;;6.78;91.17;99834.81;5046960;28;20025;-65
2023/01/15 06:21:12;;;;;;;8.02;1.65;;;;;;;6.89;91.13;99826.56;5033887;28;20049;-63
2023/01/15 06:23:38;;;;;;;8.98;1.80;;;;;;;6.89;90.91;99826.56;5046338;28;20017;-67
2023/01/15 06:26:05;;;;;;;15.15;1.70;;;;;;;6.93;90.57;99840.41;5034789;28;20479;-67
2023/01/15 06:28:31;;;;;;;10.57;2.00;;;;;;;6.93;91.02;99835.19;5040197;28;20029;-65
2023/01/15 06:30:56;;;;;;;10.52;1.50;;;;;;;6.99;91.40;99834.97;5027650;28;20095;-61
2023/01/15 06:33:22;;;;;;;9.50;2.15;;;;;;;6.92;91.99;99830.84;5041693;28;20025;-65
2023/01/15 06:35:47;;;;;;;11.60;3.65;;;;;;;6.97;90.82;99836.78;5021022;28;20032;-64
2023/01/15 06:38:12;;;;;;;8.60;1.92;;;;;;;7.02;91.09;99844.47;5033718;28;20023;-66
2023/01/15 06:40:38;;;;;;;13.48;1.33;;;;;;;7.05;90.84;99828.66;5046695;28;20143;-59
2023/01/15 06:48:32;;;;;;;11.93;2.13;;;;;;;6.91;93.43;99821.28;5021751;28;20058;-65
2023/01/15 06:50:57;;;;;;;11.38;2.10;;;;;;;6.85;93.68;99817.13;5045675;28;20025;-64
2023/01/15 06:53:22;;;;;;;7.15;1.50;;;;;;;6.79;93.55;99812.09;5046881;28;20055;-64
2023/01/15 06:55:48;;;;;;;11.98;2.75;;;;;;;6.67;93.75;99824.69;5046808;28;20127;-64
2023/01/15 06:58:13;;;;;;;10.07;2.25;;;;;;;6.73;92.84;99820.16;5046234;28;20029;-66
2023/01/15 07:00:43;;;;;;;12.75;1.67;;;;;;;6.75;92.51;99805.25;5045582;28;20494;-64
2023/01/15 07:03:08;;;;;;;14.18;1.48;;;;;;;6.78;93.00;99803.41;5037132;28;20017;-66
2023/01/15 07:05:37;;;;;;;14.02;2.22;;;;;;;6.75;93.22;99849.75;5040195;28;20044;-67
2023/01/15 07:08:03;;;;;;;10.30;1.73;;;;;;;6.75;93.43;99819.22;5031646;28;20148;-64
2023/01/15 07:10:28;;;;;;;15.82;2.10;;;;;;;6.72;92.90;99808.84;5011254;28;20065;-62
2023/01/15 07:12:53;;;;;;;13.38;2.50;;;;;;;6.69;93.10;99807.16;5039646;28;20040;-65
2023/01/15 07:15:19;;;;;;;7.70;1.50;;;;;;;6.72;93.30;99819.31;5046269;28;20395;-61
2023/01/15 07:17:44;;;;;;;12.07;1.52;;;;;;;6.82;93.10;99825.94;5045862;28;20480;-65
2023/01/15 07:20:10;;;;;;;9.77;1.83;;;;;;;6.73;93.03;99800.06;5041472;28;20037;-65
2023/01/15 07:22:36;;;;;;;13.32;2.13;;;;;;;6.80;93.26;99809.41;5048890;28;20048;-64
2023/01/15 07:25:01;;;;;;;16.25;2.72;;;;;;;6.86;93.85;99815.38;5048114;28;20487;-63
2023/01/15 07:27:27;;;;;;;16.13;2.08;;;;;;;6.88;93.99;99803.06;5045004;28;20551;-64
2023/01/15 07:29:52;;;;;;;9.60;1.85;;;;;;;6.85;94.39;99811.00;5047302;28;20032;-66
2023/01/15 07:32:18;;;;;;;11.40;1.63;;;;;;;6.85;94.63;99817.13;5047401;28;20024;-63
2023/01/15 07:34:43;;;;;;;16.15;2.33;;;;;;;6.82;94.42;99810.22;5046619;28;20029;-64
2023/01/15 07:37:09;;;;;;;16.65;2.42;;;;;;;6.89;94.45;99808.22;5049073;28;20053;-64
2023/01/15 07:39:34;;;;;;;7.60;2.60;;;;;;;6.96;94.20;99801.03;5049456;28;20036;-62
2023/01/15 07:50:17;;;;;;;15.88;2.00;;;;;;;7.09;94.58;99796.19;5048753;28;20108;-64
2023/01/15 07:52:42;;;;;;;17.05;2.83;;;;;;;6.97;95.32;99802.72;5031399;28;20037;-65
2023/01/15 07:55:09;;;;;;;14.23;2.25;;;;;;;6.91;96.37;99811.66;5050082;28;20025;-62
2023/01/15 07:57:35;;;;;;;17.33;2.60;;;;;;;6.94;96.34;99829.03;5051644;28;20486;-66
2023/01/15 08:00:00;;;;;;;19.25;3.42;;;;;;;6.98;96.68;99809.66;5018825;28;20025;-62
2023/01/15 08:02:26;;;;;;;14.65;2.35;;;;;;;6.99;96.13;99807.91;5041514;28;20076;-67
2023/01/15 08:04:52;;;;;;;14.25;2.25;;;;;;;7.12;95.63;99795.22;5043432;28;20151;-65
2023/01/15 08:07:17;;;;;;;16.48;2.13;;;;;;;7.22;95.37;99798.38;5041849;28;20104;-62
2023/01/15 08:09:43;;;;;;;19.60;2.50;;;;;;;7.22;94.89;99807.06;5039051;28;20033;-64
2023/01/15 08:15:12;;;;;;;14.13;2.40;;;;;;;7.51;93.84;99817.41;5047915;28;20117;-66
2023/01/15 08:17:39;;;;;;;11.57;1.75;;;;;;;7.43;94.53;99807.19;5049510;28;20025;-66
2023/01/15 08:20:07;;;;;;;16.95;2.53;;;;;;;7.43;93.86;99815.06;5032440;28;20426;-64
2023/01/15 08:22:32;;;;;;;22.05;2.78;;;;;;;7.55;93.28;99806.75;5036746;28;20045;-65
2023/01/15 08:24:57;;;;;;;12.88;2.20;;;;;;;7.44;93.42;99806.31;5030264;28;20423;-66
2023/01/15 08:27:23;;;;;;;14.93;2.20;;;;;;;7.61;93.06;99799.56;5033306;28;20077;-60
2023/01/15 08:29:48;;;;;;;13.30;2.25;;;;;;;7.43;93.76;99799.31;5016895;28;20588;-64
2023/01/15 08:32:14;;;;;;;23.25;3.97;;;;;;;7.56;93.03;99832.03;5034165;28;20494;-62
2023/01/15 08:34:39;;;;;;;18.02;2.67;;;;;;;7.52;92.99;99795.50;5030933;28;20017;-64
2023/01/15 08:37:04;;;;;;;19.20;2.60;;;;;;;7.51;93.39;99786.81;5030482;28;20029;-60
2023/01/15 08:39:30;;;;;;;13.80;2.20;;;;;;;7.55;93.95;99793.63;5032785;28;20025;-66
2023/01/15 08:41:55;;;;;;;17.42;2.47;;;;;;;7.44;94.41;99806.31;5030692;28;20025;-63
2023/01/15 08:44:22;;;;;;;20.13;2.85;;;;;;;7.44;94.24;99809.75;5036676;28;20383;-62
2023/01/15 08:46:48;;;;;;;9.43;2.08;;;;;;;7.45;94.09;99819.34;5029169;28;20527;-66
2023/01/15 08:49:14;;;;;;;15.30;1.85;;;;;;;7.50;94.17;99813.94;5034380;28;20112;-60
2023/01/15 08:51:39;;;;;;;11.32;2.00;;;;;;;7.41;94.35;99809.03;5032135;28;20108;-67
2023/01/15 08:54:04;;;;;;;12.70;1.95;;;;;;;7.48;94.78;99813.13;5030154;28;20506;-64
2023/01/15 08:56:29;;;;;;;19.23;2.72;;;;;;;7.43;95.29;99805.44;5035825;28;20482;-66
2023/01/15 08:58:55;;;;;;;15.18;1.75;;;;;;;7.58;95.58;99804.00;5042641;28;20556;-59
2023/01/15 09:01:20;;;;;;;12.55;2.00;;;;;;;7.73;95.94;99816.59;5040507;28;20479;-63
2023/01/15 09:03:46;;;;;;;12.82;2.30;;;;;;;7.65;95.97;99819.50;5040428;28;20025;-64
2023/01/15 09:06:12;;;;;;;13.68;1.80;;;;;;;7.66;96.08;99815.97;5034567;28;20021;-65
2023/01/15 09:08:37;;;;;;;15.27;2.08;;;;;;;7.68;95.79;99812.34;5047972;28;20028;-64
2023/01/15 09:11:04;;;;;;;10.80;1.75;;;;;;;7.56;96.13;99812.84;5047966;28;20025;-67
2023/01/15 09:13:30;;;;;;;10.13;2.28;;;;;;;7.51;95.62;99822.63;5045970;28;20013;-62
2023/01/15 09:15:59;;;;;;;12.07;1.52;;;;;;;7.58;96.17;99809.25;5047846;28;20045;-64
2023/01/15 09:18:24;;;;;;;;;;;;;;;7.64;95.92;99818.63;5035581;28;20025;-65
2023/01/15 09:20:49;;;;;;;13.05;1.83;;;;;;;7.61;96.28;99803.03;5047476;28;19918;-64
2023/01/15 09:23:15;;;;;;;7.43;1.33;;;;;;;7.69;95.94;99810.59;5011601;28;20029;-66
2023/01/15 09:25:50;;;;;;;12.60;2.83;;;;;;;7.69;96.47;99805.34;5039714;28;20023;-66
2023/01/15 09:28:15;;;;;;;12.90;2.10;;;;;;;7.83;95.95;99808.28;5034037;28;20036;-64
2023/01/15 09:30:41;;;;;;;10.88;1.98;;;;;;;7.79;95.68;99801.47;5038306;28;20021;-64
2023/01/15 09:33:06;;;;;;;15.88;3.20;;;;;;;7.81;95.39;99817.13;5046755;28;20028;-66
2023/01/15 09:35:31;;;;;;;16.35;2.03;;;;;;;7.87;95.01;99808.16;5038746;28;20116;-64
2023/01/15 09:37:57;;;;;;;9.00;1.92;;;;;;;7.90;94.95;99818.53;5046544;28;20392;-64
2023/01/15 09:40:33;;;;;;;12.68;1.73;;;;;;;7.80;94.00;99820.69;5047516;28;20356;-66
2023/01/15 09:43:08;;;;;;;14.68;1.83;;;;;;;7.87;94.19;99811.66;5027583;28;20099;-65
2023/01/15 09:45:44;;;;;;;9.20;1.85;;;;;;;7.89;94.01;99809.81;5018993;28;20029;-65
2023/01/15 09:48:21;;;;;;;12.10;1.83;;;;;;;7.82;93.69;99813.59;5023681;28;20021;-63
2023/01/15 09:51:04;;;;;;;9.88;2.03;;;;;;;7.77;93.44;99790.16;5040270;28;20035;-64
2023/01/15 09:53:40;;;;;;;9.70;1.85;;;;;;;7.95;93.18;99804.31;5036416;28;20056;-63
2023/01/15 09:56:13;;;;;;;17.10;2.47;;;;;;;7.89;94.24;99817.69;5046262;28;20519;-59
2023/01/15 09:58:39;;;;;;;10.73;2.20;;;;;;;7.91;94.70;99805.38;5012244;28;20414;-63
2023/01/15 10:01:05;;;;;;;16.10;2.28;;;;;;;8.09;94.09;99830.03;5014575;28;20022;-64
2023/01/15 10:03:53;;;;;;;15.63;2.05;;;;;;;8.29;94.24;99817.88;5028972;28;20016;-64
2023/01/15 10:06:25;;;;;;;14.27;2.15;;;;;;;8.34;93.13;99830.81;5026770;28;20088;-64
2023/01/15 10:08:59;;;;;;;14.73;2.08;;;;;;;8.39;92.98;99810.47;5019465;28;20384;-61
2023/01/15 10:12:34;;;;;;;16.33;2.50;;;;;;;8.57;92.94;99815.91;5012966;28;20021;-63
2023/01/15 10:14:38;;;;;;;12.38;2.53;;;;;;;8.65;92.63;99831.34;5013244;28;20034;-61
2023/01/15 10:17:27;;;;;;;10.88;2.22;;;;;;;8.60;92.51;99836.78;5017387;28;20022;-65
2023/01/15 10:19:52;;;;;;;;;;;;;;;8.50;91.67;99853.81;5030107;28;20037;-64
2023/01/15 10:22:24;;;;;;;11.75;2.55;;;;;;;8.59;90.36;99843.81;5009986;28;19913;-62
2023/01/15 10:24:56;;;;;;;14.57;1.67;;;;;;;8.71;90.13;99821.44;5012081;28;20032;-65
2023/01/15 10:27:23;;;;;;;16.80;2.45;;;;;;;8.76;90.62;99844.84;5028413;28;20029;-63
2023/01/15 10:29:53;;;;;;;14.35;2.22;;;;;;;8.61;91.92;99840.25;5013136;28;20593;-64
2023/01/15 10:32:37;;;;;;;19.70;2.70;;;;;;;8.63;92.01;99835.78;5029275;28;20021;-65
2023/01/15 10:35:37;;;;;;;19.45;2.45;;;;;;;8.57;91.71;99855.28;5018359;28;20026;-61
2023/01/15 10:38:22;;;;;;;15.05;2.38;;;;;;;8.77;91.78;99845.72;5017300;28;20061;-63
2023/01/15 10:41:22;;;;;;;14.52;2.40;;;;;;;8.61;91.44;99845.53;5028733;28;20025;-64
2023/01/15 10:43:54;;;;;;;6.80;1.58;;;;;;;8.66;90.97;99838.28;4994176;28;20033;-63
2023/01/15 10:46:26;;;;;;;13.48;2.92;;;;;;;8.56;91.10;99838.69;5028813;28;20080;-64
2023/01/15 10:49:15;;;;;;;18.42;2.13;;;;;;;8.43;91.79;99842.72;5010473;28;20037;-64
2023/01/15 10:51:43;;;;;;;;;;;;;;;8.38;91.25;99865.66;5030078;28;20530;-63
2023/01/15 10:54:21;;;;;;;16.45;2.22;;;;;;;8.41;91.61;99855.91;5016610;28;19909;-65
2023/01/15 10:56:57;;;;;;;10.57;1.83;;;;;;;8.45;91.30;99836.47;5032832;28;20037;-66
2023/01/15 10:59:33;;;;;;;13.20;2.45;;;;;;;8.24;91.72;99867.06;5035016;28;20491;-66
2023/01/15 11:02:00;;;;;;;17.70;3.08;;;;;;;8.46;92.26;99859.16;5027411;28;20021;-65
2023/01/15 11:04:28;;;;;;;12.18;2.33;;;;;;;8.53;92.22;99849.28;5032857;28;20476;-65
2023/01/15 11:06:54;;;;;;;9.20;1.80;;;;;;;8.50;91.26;99880.91;5014604;28;20033;-64
2023/01/15 11:09:22;;;;;;;8.05;1.95;;;;;;;8.52;90.89;99873.81;5033429;28;20017;-62
2023/01/15 11:20:16;;;;;;;15.30;2.83;;;;;;;8.75;90.35;99853.66;5014794;28;20028;-63
2023/01/15 11:22:42;;;;;;;10.55;2.25;;;;;;;8.89;90.47;99849.59;5029875;28;20112;-61
2023/01/15 11:25:09;;;;;;;17.85;2.50;;;;;;;9.08;90.70;99824.22;5034983;28;20104;-64
2023/01/15 11:27:36;;;;;;;7.82;1.70;;;;;;;9.16;90.27;99842.31;5038148;28;20033;-60
2023/01/15 11:30:03;;;;;;;12.52;2.15;;;;;;;9.27;92.84;99844.44;5039024;28;20368;-62
2023/01/15 11:32:31;;;;;;;11.18;2.72;;;;;;;9.17;94.25;99833.50;5042039;28;20025;-62
2023/01/15 11:35:02;;;;;;;14.88;3.00;;;;;;;8.97;94.65;99839.59;5038796;28;20072;-62
2023/01/15 11:37:29;;;;;;;14.95;3.10;;;;;;;9.17;94.69;99824.72;5038870;28;20056;-61
2023/01/15 11:39:56;;;;;;;18.75;2.58;;;;;;;9.03;95.29;99831.44;5022674;28;20035;-63
2023/01/15 11:50:52;;;;;;;18.73;2.55;;;;;;;8.38;100.00;99836.78;5044752;28;20068;-64
2023/01/15 11:53:21;;;;;;;17.10;2.15;;;;;;;8.15;100.00;99896.28;5030449;28;20021;-56
2023/01/15 11:55:52;;;;;;;14.98;2.40;;;;;;;8.13;100.00;99864.03;5031463;28;20024;-62
2023/01/15 11:58:17;;;;;;;19.17;2.63;;;;;;;7.97;100.00;99864.59;5031169;28;20060;-63
2023/01/15 12:00:44;;;;;;;12.55;2.60;;;;;;;7.84;100.00;99874.72;5049551;28;20471;-67
2023/01/15 12:03:17;;;;;;;21.40;2.50;;;;;;;7.91;100.00;99862.22;5032049;28;20052;-64
2023/01/15 12:05:53;;;;;;;21.58;2.65;;;;;;;8.08;100.00;99837.97;5025751;28;20032;-63
2023/01/15 12:08:41;;;;;;;13.63;2.45;;;;;;;8.08;100.00;99854.56;5043686;28;20025;-63
2023/01/15 12:11:44;;;;;;;8.02;1.75;;;;;;;8.18;99.90;99849.78;5020506;28;20091;-60
2023/01/15 12:14:47;;;;;;;11.55;1.92;;;;;;;8.16;100.00;99853.41;5009820;28;20107;-62
2023/01/15 12:17:31;;;;;;;12.50;1.58;;;;;;;8.13;100.00;99859.59;5028412;28;20541;-61
2023/01/15 12:19:56;;;;;;;13.20;1.85;;;;;;;8.24;100.00;99859.19;5029271;28;20499;-62
2023/01/15 12:22:24;;;;;;;16.30;2.58;;;;;;;8.33;99.86;99857.97;5049361;28;20033;-63